sensor_id;sensor_type;location;lat;lon;timestamp;temperature;humidity
1958;DHT22;979;51.076;13.748;2023-09-19T00:00:41;19.60;92.80
1958;DHT22;979;51.076;13.748;2023-09-19T00:03:28;19.50;93.00
1958;DHT22;979;51.076;13.748;2023-09-19T00:06:19;19.60;93.00
1958;DHT22;979;51.076;13.748;2023-09-19T00:09:26;19.60;92.60
1958;DHT22;979;51.076;13.748;2023-09-19T00:12:32;19.50;92.70
1958;DHT22;979;51.076;13.748;2023-09-19T00:15:44;19.50;92.50
1958;DHT22;979;51.076;13.748;2023-09-19T00:18:42;19.50;92.50
1958;DHT22;979;51.076;13.748;2023-09-19T00:21:35;19.70;92.60
1958;DHT22;979;51.076;13.748;2023-09-19T00:24:58;19.60;92.40
1958;DHT22;979;51.076;13.748;2023-09-19T00:27:35;19.50;92.20
1958;DHT22;979;51.076;13.748;2023-09-19T00:30:35;19.60;92.20
1958;DHT22;979;51.076;13.748;2023-09-19T00:33:40;19.60;92.00
1958;DHT22;979;51.076;13.748;2023-09-19T00:36:28;19.60;91.90
1958;DHT22;979;51.076;13.748;2023-09-19T00:39:25;19.70;91.90
1958;DHT22;979;51.076;13.748;2023-09-19T00:42:50;19.90;92.10
1958;DHT22;979;51.076;13.748;2023-09-19T00:45:32;19.60;91.80
1958;DHT22;979;51.076;13.748;2023-09-19T00:48:41;19.60;92.10
1958;DHT22;979;51.076;13.748;2023-09-19T00:51:38;19.60;91.80
1958;DHT22;979;51.076;13.748;2023-09-19T00:54:38;19.60;91.80
1958;DHT22;979;51.076;13.748;2023-09-19T00:57:46;19.60;91.90
1958;DHT22;979;51.076;13.748;2023-09-19T01:00:57;19.70;91.90
1958;DHT22;979;51.076;13.748;2023-09-19T01:04:11;19.60;91.70
1958;DHT22;979;51.076;13.748;2023-09-19T01:07:02;19.60;91.70
1958;DHT22;979;51.076;13.748;2023-09-19T01:09:58;19.70;91.60
1958;DHT22;979;51.076;13.748;2023-09-19T01:13:03;19.40;91.70
1958;DHT22;979;51.076;13.748;2023-09-19T01:15:57;19.40;91.50
1958;DHT22;979;51.076;13.748;2023-09-19T01:18:43;19.50;91.60
1958;DHT22;979;51.076;13.748;2023-09-19T01:25:56;19.50;91.70
1958;DHT22;979;51.076;13.748;2023-09-19T01:29:17;19.50;91.60
1958;DHT22;979;51.076;13.748;2023-09-19T01:32:32;19.50;91.60
1958;DHT22;979;51.076;13.748;2023-09-19T01:35:28;19.50;91.70
1958;DHT22;979;51.076;13.748;2023-09-19T01:38:13;19.50;91.90
1958;DHT22;979;51.076;13.748;2023-09-19T01:40:43;19.40;91.90
1958;DHT22;979;51.076;13.748;2023-09-19T01:43:31;19.50;92.10
1958;DHT22;979;51.076;13.748;2023-09-19T01:46:25;19.50;92.20
1958;DHT22;979;51.076;13.748;2023-09-19T01:49:50;19.50;92.20
1958;DHT22;979;51.076;13.748;2023-09-19T01:52:48;19.50;92.10
1958;DHT22;979;51.076;13.748;2023-09-19T01:55:57;19.40;92.10
1958;DHT22;979;51.076;13.748;2023-09-19T01:58:49;19.50;92.20
1958;DHT22;979;51.076;13.748;2023-09-19T02:02:23;19.50;92.10
1958;DHT22;979;51.076;13.748;2023-09-19T02:05:32;19.40;91.90
1958;DHT22;979;51.076;13.748;2023-09-19T02:08:12;19.40;92.30
1958;DHT22;979;51.076;13.748;2023-09-19T02:10:58;19.50;92.30
1958;DHT22;979;51.076;13.748;2023-09-19T02:13:54;19.30;92.10
1958;DHT22;979;51.076;13.748;2023-09-19T02:16:33;19.50;92.50
1958;DHT22;979;51.076;13.748;2023-09-19T02:19:42;19.20;92.30
1958;DHT22;979;51.076;13.748;2023-09-19T02:22:32;19.30;92.50
1958;DHT22;979;51.076;13.748;2023-09-19T02:25:19;19.50;92.40
1958;DHT22;979;51.076;13.748;2023-09-19T02:28:10;19.50;92.70
1958;DHT22;979;51.076;13.748;2023-09-19T02:31:08;19.50;92.70
1958;DHT22;979;51.076;13.748;2023-09-19T02:33:49;19.60;92.50
1958;DHT22;979;51.076;13.748;2023-09-19T02:36:57;19.50;92.60
1958;DHT22;979;51.076;13.748;2023-09-19T02:39:42;19.60;92.30
1958;DHT22;979;51.076;13.748;2023-09-19T02:42:35;19.70;92.10
1958;DHT22;979;51.076;13.748;2023-09-19T02:45:40;19.90;92.20
1958;DHT22;979;51.076;13.748;2023-09-19T02:48:26;19.70;91.50
1958;DHT22;979;51.076;13.748;2023-09-19T02:51:28;19.80;91.30
1958;DHT22;979;51.076;13.748;2023-09-19T02:54:18;19.90;91.10
1958;DHT22;979;51.076;13.748;2023-09-19T02:57:44;19.90;91.00
1958;DHT22;979;51.076;13.748;2023-09-19T03:00:38;20.00;90.70
1958;DHT22;979;51.076;13.748;2023-09-19T03:03:40;20.00;90.70
1958;DHT22;979;51.076;13.748;2023-09-19T03:06:24;20.20;90.30
1958;DHT22;979;51.076;13.748;2023-09-19T03:09:15;20.00;90.20
1958;DHT22;979;51.076;13.748;2023-09-19T03:12:00;20.00;90.10
1958;DHT22;979;51.076;13.748;2023-09-19T03:14:58;20.10;89.70
1958;DHT22;979;51.076;13.748;2023-09-19T03:18:02;20.10;89.30
1958;DHT22;979;51.076;13.748;2023-09-19T03:20:54;20.10;89.00
1958;DHT22;979;51.076;13.748;2023-09-19T03:23:37;20.10;88.90
1958;DHT22;979;51.076;13.748;2023-09-19T03:26:31;20.00;88.30
1958;DHT22;979;51.076;13.748;2023-09-19T03:29:17;20.20;88.20
1958;DHT22;979;51.076;13.748;2023-09-19T03:32:18;20.20;88.30
1958;DHT22;979;51.076;13.748;2023-09-19T03:35:02;20.30;87.90
1958;DHT22;979;51.076;13.748;2023-09-19T03:37:34;20.30;87.60
1958;DHT22;979;51.076;13.748;2023-09-19T03:40:20;20.20;87.50
1958;DHT22;979;51.076;13.748;2023-09-19T03:43:05;20.20;87.60
1958;DHT22;979;51.076;13.748;2023-09-19T03:45:48;20.20;87.20
1958;DHT22;979;51.076;13.748;2023-09-19T03:48:48;20.20;87.60
1958;DHT22;979;51.076;13.748;2023-09-19T03:51:25;20.10;87.50
1958;DHT22;979;51.076;13.748;2023-09-19T03:54:33;20.00;86.90
1958;DHT22;979;51.076;13.748;2023-09-19T03:57:21;20.20;87.10
1958;DHT22;979;51.076;13.748;2023-09-19T04:00:21;19.80;87.20
1958;DHT22;979;51.076;13.748;2023-09-19T04:03:13;20.00;87.60
1958;DHT22;979;51.076;13.748;2023-09-19T04:10:00;19.90;87.10
1958;DHT22;979;51.076;13.748;2023-09-19T04:12:50;19.90;86.90
1958;DHT22;979;51.076;13.748;2023-09-19T04:15:46;19.90;87.10
1958;DHT22;979;51.076;13.748;2023-09-19T04:18:39;19.60;86.50
1958;DHT22;979;51.076;13.748;2023-09-19T04:21:31;19.60;86.30
1958;DHT22;979;51.076;13.748;2023-09-19T04:24:22;19.80;86.70
1958;DHT22;979;51.076;13.748;2023-09-19T04:27:15;19.90;86.80
1958;DHT22;979;51.076;13.748;2023-09-19T04:30:05;19.90;86.50
1958;DHT22;979;51.076;13.748;2023-09-19T04:32:51;19.90;86.40
1958;DHT22;979;51.076;13.748;2023-09-19T04:36:00;19.80;86.60
1958;DHT22;979;51.076;13.748;2023-09-19T04:39:46;19.80;86.80
1958;DHT22;979;51.076;13.748;2023-09-19T04:42:40;19.80;86.40
1958;DHT22;979;51.076;13.748;2023-09-19T04:45:23;19.80;86.20
1958;DHT22;979;51.076;13.748;2023-09-19T04:48:23;19.80;85.90
1958;DHT22;979;51.076;13.748;2023-09-19T04:51:20;19.80;86.40
1958;DHT22;979;51.076;13.748;2023-09-19T04:54:16;19.80;86.00
1958;DHT22;979;51.076;13.748;2023-09-19T04:57:39;19.90;86.50
1958;DHT22;979;51.076;13.748;2023-09-19T05:00:31;19.70;86.10
1958;DHT22;979;51.076;13.748;2023-09-19T05:03:36;19.70;85.70
1958;DHT22;979;51.076;13.748;2023-09-19T05:06:41;19.70;86.10
1958;DHT22;979;51.076;13.748;2023-09-19T05:09:29;19.70;85.90
1958;DHT22;979;51.076;13.748;2023-09-19T05:12:25;19.70;85.80
1958;DHT22;979;51.076;13.748;2023-09-19T05:15:07;19.60;85.80
1958;DHT22;979;51.076;13.748;2023-09-19T05:18:04;19.70;85.90
1958;DHT22;979;51.076;13.748;2023-09-19T05:21:06;19.70;85.90
1958;DHT22;979;51.076;13.748;2023-09-19T05:24:06;19.70;85.90
1958;DHT22;979;51.076;13.748;2023-09-19T05:26:45;19.70;85.50
1958;DHT22;979;51.076;13.748;2023-09-19T05:29:45;19.70;85.90
1958;DHT22;979;51.076;13.748;2023-09-19T05:32:25;19.80;85.40
1958;DHT22;979;51.076;13.748;2023-09-19T05:34:56;19.80;85.50
1958;DHT22;979;51.076;13.748;2023-09-19T05:37:26;19.80;85.20
1958;DHT22;979;51.076;13.748;2023-09-19T05:40:17;19.80;85.30
1958;DHT22;979;51.076;13.748;2023-09-19T05:42:54;19.70;85.20
1958;DHT22;979;51.076;13.748;2023-09-19T05:45:41;19.90;84.90
1958;DHT22;979;51.076;13.748;2023-09-19T05:48:25;20.00;85.10
1958;DHT22;979;51.076;13.748;2023-09-19T05:51:07;20.00;85.10
1958;DHT22;979;51.076;13.748;2023-09-19T05:53:58;20.00;85.20
1958;DHT22;979;51.076;13.748;2023-09-19T05:56:45;20.00;84.90
1958;DHT22;979;51.076;13.748;2023-09-19T05:59:42;20.10;84.60
1958;DHT22;979;51.076;13.748;2023-09-19T06:06:14;20.10;84.20
1958;DHT22;979;51.076;13.748;2023-09-19T06:08:56;20.20;84.20
1958;DHT22;979;51.076;13.748;2023-09-19T06:11:51;20.00;84.40
1958;DHT22;979;51.076;13.748;2023-09-19T06:14:45;20.00;83.60
1958;DHT22;979;51.076;13.748;2023-09-19T06:17:34;20.30;83.80
1958;DHT22;979;51.076;13.748;2023-09-19T06:20:23;20.30;83.80
1958;DHT22;979;51.076;13.748;2023-09-19T06:26:55;20.30;83.40
1958;DHT22;979;51.076;13.748;2023-09-19T06:29:48;20.20;83.20
1958;DHT22;979;51.076;13.748;2023-09-19T06:32:37;20.40;83.40
1958;DHT22;979;51.076;13.748;2023-09-19T06:35:26;20.40;83.80
1958;DHT22;979;51.076;13.748;2023-09-19T06:38:19;20.40;83.20
1958;DHT22;979;51.076;13.748;2023-09-19T06:41:06;20.40;83.20
1958;DHT22;979;51.076;13.748;2023-09-19T06:44:05;20.30;83.10
1958;DHT22;979;51.076;13.748;2023-09-19T06:46:56;20.50;82.90
1958;DHT22;979;51.076;13.748;2023-09-19T06:50:14;20.60;83.40
1958;DHT22;979;51.076;13.748;2023-09-19T06:52:55;20.40;82.50
1958;DHT22;979;51.076;13.748;2023-09-19T06:56:12;20.60;82.80
1958;DHT22;979;51.076;13.748;2023-09-19T06:59:22;20.80;82.50
1958;DHT22;979;51.076;13.748;2023-09-19T07:02:05;20.60;82.50
1958;DHT22;979;51.076;13.748;2023-09-19T07:04:46;20.70;82.40
1958;DHT22;979;51.076;13.748;2023-09-19T07:07:42;21.20;82.40
1958;DHT22;979;51.076;13.748;2023-09-19T07:10:36;20.90;82.20
1958;DHT22;979;51.076;13.748;2023-09-19T07:13:20;21.30;81.70
1958;DHT22;979;51.076;13.748;2023-09-19T07:16:14;21.10;81.70
1958;DHT22;979;51.076;13.748;2023-09-19T07:19:23;21.20;81.10
1958;DHT22;979;51.076;13.748;2023-09-19T07:22:12;21.40;80.90
1958;DHT22;979;51.076;13.748;2023-09-19T07:24:53;21.30;80.70
1958;DHT22;979;51.076;13.748;2023-09-19T07:27:31;21.30;80.50
1958;DHT22;979;51.076;13.748;2023-09-19T07:30:18;21.30;80.30
1958;DHT22;979;51.076;13.748;2023-09-19T07:33:08;21.40;79.80
1958;DHT22;979;51.076;13.748;2023-09-19T07:36:07;21.50;79.30
1958;DHT22;979;51.076;13.748;2023-09-19T07:39:01;21.60;78.00
1958;DHT22;979;51.076;13.748;2023-09-19T07:41:58;21.60;75.80
1958;DHT22;979;51.076;13.748;2023-09-19T07:44:47;21.60;75.40
1958;DHT22;979;51.076;13.748;2023-09-19T07:47:39;21.70;75.50
1958;DHT22;979;51.076;13.748;2023-09-19T07:50:39;21.70;74.80
1958;DHT22;979;51.076;13.748;2023-09-19T07:53:53;21.70;74.10
1958;DHT22;979;51.076;13.748;2023-09-19T07:56:50;21.80;73.20
1958;DHT22;979;51.076;13.748;2023-09-19T07:59:40;21.70;73.30
1958;DHT22;979;51.076;13.748;2023-09-19T08:09:29;21.80;72.00
1958;DHT22;979;51.076;13.748;2023-09-19T08:12:28;21.90;72.00
1958;DHT22;979;51.076;13.748;2023-09-19T08:15:06;21.80;71.30
1958;DHT22;979;51.076;13.748;2023-09-19T08:18:14;22.00;71.30
1958;DHT22;979;51.076;13.748;2023-09-19T08:21:02;22.10;71.00
1958;DHT22;979;51.076;13.748;2023-09-19T08:23:40;22.20;70.80
1958;DHT22;979;51.076;13.748;2023-09-19T08:26:34;22.20;70.90
1958;DHT22;979;51.076;13.748;2023-09-19T08:29:58;22.30;70.50
1958;DHT22;979;51.076;13.748;2023-09-19T08:36:03;22.60;70.70
1958;DHT22;979;51.076;13.748;2023-09-19T08:39:11;23.10;70.00
1958;DHT22;979;51.076;13.748;2023-09-19T08:42:18;23.20;70.20
1958;DHT22;979;51.076;13.748;2023-09-19T08:45:05;23.20;69.20
1958;DHT22;979;51.076;13.748;2023-09-19T08:48:26;23.30;68.60
1958;DHT22;979;51.076;13.748;2023-09-19T08:51:27;23.10;68.00
1958;DHT22;979;51.076;13.748;2023-09-19T08:54:44;23.20;68.00
1958;DHT22;979;51.076;13.748;2023-09-19T08:57:36;23.30;67.40
1958;DHT22;979;51.076;13.748;2023-09-19T09:00:28;23.20;67.20
1958;DHT22;979;51.076;13.748;2023-09-19T09:03:51;23.20;67.50
1958;DHT22;979;51.076;13.748;2023-09-19T09:06:42;23.10;67.20
1958;DHT22;979;51.076;13.748;2023-09-19T09:09:53;23.00;66.80
1958;DHT22;979;51.076;13.748;2023-09-19T09:13:33;23.30;67.10
1958;DHT22;979;51.076;13.748;2023-09-19T09:15:56;23.30;67.90
1958;DHT22;979;51.076;13.748;2023-09-19T09:18:42;23.60;68.20
1958;DHT22;979;51.076;13.748;2023-09-19T09:21:32;23.80;67.50
1958;DHT22;979;51.076;13.748;2023-09-19T09:24:55;23.90;66.50
1958;DHT22;979;51.076;13.748;2023-09-19T09:28:13;24.10;65.40
1958;DHT22;979;51.076;13.748;2023-09-19T09:35:56;23.90;63.50
1958;DHT22;979;51.076;13.748;2023-09-19T09:39:02;23.80;63.60
1958;DHT22;979;51.076;13.748;2023-09-19T09:42:20;23.90;63.40
1958;DHT22;979;51.076;13.748;2023-09-19T09:45:28;23.80;63.30
1958;DHT22;979;51.076;13.748;2023-09-19T09:51:48;23.90;62.90
1958;DHT22;979;51.076;13.748;2023-09-19T09:55:03;24.10;63.30
1958;DHT22;979;51.076;13.748;2023-09-19T09:58:26;24.10;62.90
1958;DHT22;979;51.076;13.748;2023-09-19T10:01:48;23.80;62.80
1958;DHT22;979;51.076;13.748;2023-09-19T10:05:16;24.30;63.00
1958;DHT22;979;51.076;13.748;2023-09-19T10:08:15;24.10;62.50
1958;DHT22;979;51.076;13.748;2023-09-19T10:11:16;24.10;62.30
1958;DHT22;979;51.076;13.748;2023-09-19T10:13:48;24.00;62.50
1958;DHT22;979;51.076;13.748;2023-09-19T10:16:40;23.80;62.50
1958;DHT22;979;51.076;13.748;2023-09-19T10:19:36;24.00;62.50
1958;DHT22;979;51.076;13.748;2023-09-19T10:22:35;24.10;62.50
1958;DHT22;979;51.076;13.748;2023-09-19T10:25:15;24.00;62.30
1958;DHT22;979;51.076;13.748;2023-09-19T10:28:15;24.10;62.60
1958;DHT22;979;51.076;13.748;2023-09-19T10:30:58;24.30;62.00
1958;DHT22;979;51.076;13.748;2023-09-19T10:33:55;24.20;62.50
1958;DHT22;979;51.076;13.748;2023-09-19T10:37:05;24.30;62.00
1958;DHT22;979;51.076;13.748;2023-09-19T10:39:51;24.30;62.10
1958;DHT22;979;51.076;13.748;2023-09-19T10:42:27;24.30;61.50
1958;DHT22;979;51.076;13.748;2023-09-19T10:45:07;24.40;61.30
1958;DHT22;979;51.076;13.748;2023-09-19T10:48:16;24.60;61.20
1958;DHT22;979;51.076;13.748;2023-09-19T10:52:37;24.60;60.30
1958;DHT22;979;51.076;13.748;2023-09-19T10:55:40;24.60;60.50
1958;DHT22;979;51.076;13.748;2023-09-19T10:58:38;24.70;60.60
1958;DHT22;979;51.076;13.748;2023-09-19T11:01:46;24.90;59.90
1958;DHT22;979;51.076;13.748;2023-09-19T11:04:36;24.90;59.80
1958;DHT22;979;51.076;13.748;2023-09-19T11:07:26;25.10;60.20
1958;DHT22;979;51.076;13.748;2023-09-19T11:10:47;25.20;60.10
1958;DHT22;979;51.076;13.748;2023-09-19T11:13:29;25.70;59.40
1958;DHT22;979;51.076;13.748;2023-09-19T11:16:29;26.00;59.10
1958;DHT22;979;51.076;13.748;2023-09-19T11:23:26;26.00;58.10
1958;DHT22;979;51.076;13.748;2023-09-19T11:26:04;26.10;57.40
1958;DHT22;979;51.076;13.748;2023-09-19T11:28:48;26.10;57.10
1958;DHT22;979;51.076;13.748;2023-09-19T11:34:41;26.20;56.00
1958;DHT22;979;51.076;13.748;2023-09-19T11:44:49;27.10;54.30
1958;DHT22;979;51.076;13.748;2023-09-19T11:47:23;27.10;54.00
1958;DHT22;979;51.076;13.748;2023-09-19T11:50:20;27.40;54.20
1958;DHT22;979;51.076;13.748;2023-09-19T11:53:05;28.00;52.80
1958;DHT22;979;51.076;13.748;2023-09-19T11:58:58;29.40;52.50
1958;DHT22;979;51.076;13.748;2023-09-19T12:01:52;30.30;51.80
1958;DHT22;979;51.076;13.748;2023-09-19T12:04:41;31.10;50.60
1958;DHT22;979;51.076;13.748;2023-09-19T12:07:12;31.40;50.30
1958;DHT22;979;51.076;13.748;2023-09-19T12:09:50;31.70;50.30
1958;DHT22;979;51.076;13.748;2023-09-19T12:12:57;31.80;49.80
1958;DHT22;979;51.076;13.748;2023-09-19T12:15:40;31.10;49.50
1958;DHT22;979;51.076;13.748;2023-09-19T12:18:36;31.10;50.70
1958;DHT22;979;51.076;13.748;2023-09-19T12:21:29;31.40;49.90
1958;DHT22;979;51.076;13.748;2023-09-19T12:24:27;30.80;49.50
1958;DHT22;979;51.076;13.748;2023-09-19T12:27:09;31.30;50.00
1958;DHT22;979;51.076;13.748;2023-09-19T12:30:03;31.60;49.30
1958;DHT22;979;51.076;13.748;2023-09-19T12:33:17;32.50;49.50
1958;DHT22;979;51.076;13.748;2023-09-19T12:36:21;33.10;48.50
1958;DHT22;979;51.076;13.748;2023-09-19T12:39:25;33.60;47.20
1958;DHT22;979;51.076;13.748;2023-09-19T12:42:21;33.80;47.20
1958;DHT22;979;51.076;13.748;2023-09-19T12:45:14;34.10;46.70
1958;DHT22;979;51.076;13.748;2023-09-19T12:48:34;33.90;46.30
1958;DHT22;979;51.076;13.748;2023-09-19T12:52:04;33.60;46.10
1958;DHT22;979;51.076;13.748;2023-09-19T12:55:00;33.70;46.30
1958;DHT22;979;51.076;13.748;2023-09-19T12:58:00;33.80;46.30
1958;DHT22;979;51.076;13.748;2023-09-19T13:00:54;34.10;45.70
1958;DHT22;979;51.076;13.748;2023-09-19T13:04:23;34.50;46.10
1958;DHT22;979;51.076;13.748;2023-09-19T13:11:41;34.60;44.90
1958;DHT22;979;51.076;13.748;2023-09-19T13:15:56;34.20;45.00
1958;DHT22;979;51.076;13.748;2023-09-19T13:18:33;34.30;44.30
1958;DHT22;979;51.076;13.748;2023-09-19T13:24:25;33.10;44.40
1958;DHT22;979;51.076;13.748;2023-09-19T13:27:41;32.80;45.10
1958;DHT22;979;51.076;13.748;2023-09-19T13:31:22;32.70;45.60
1958;DHT22;979;51.076;13.748;2023-09-19T13:34:25;32.40;45.40
1958;DHT22;979;51.076;13.748;2023-09-19T13:37:46;32.40;45.80
1958;DHT22;979;51.076;13.748;2023-09-19T13:40:41;32.50;46.10
1958;DHT22;979;51.076;13.748;2023-09-19T13:48:03;33.30;44.60
1958;DHT22;979;51.076;13.748;2023-09-19T13:51:11;32.90;44.70
1958;DHT22;979;51.076;13.748;2023-09-19T13:54:04;32.60;45.00
1958;DHT22;979;51.076;13.748;2023-09-19T13:57:00;31.80;45.20
1958;DHT22;979;51.076;13.748;2023-09-19T13:59:52;31.20;45.90
1958;DHT22;979;51.076;13.748;2023-09-19T14:02:21;30.90;46.60
1958;DHT22;979;51.076;13.748;2023-09-19T14:05:07;31.20;47.00
1958;DHT22;979;51.076;13.748;2023-09-19T14:07:49;31.60;47.00
1958;DHT22;979;51.076;13.748;2023-09-19T14:10:30;31.90;46.40
1958;DHT22;979;51.076;13.748;2023-09-19T14:14:07;32.40;46.40
1958;DHT22;979;51.076;13.748;2023-09-19T14:17:03;33.60;46.20
1958;DHT22;979;51.076;13.748;2023-09-19T14:20:12;34.50;45.60
1958;DHT22;979;51.076;13.748;2023-09-19T14:26:11;35.20;43.80
1958;DHT22;979;51.076;13.748;2023-09-19T14:28:55;34.90;43.20
1958;DHT22;979;51.076;13.748;2023-09-19T14:31:53;34.60;43.90
1958;DHT22;979;51.076;13.748;2023-09-19T14:34:44;34.70;44.00
1958;DHT22;979;51.076;13.748;2023-09-19T14:37:56;33.70;43.80
1958;DHT22;979;51.076;13.748;2023-09-19T14:40:53;32.60;44.40
1958;DHT22;979;51.076;13.748;2023-09-19T14:44:37;31.70;44.80
1958;DHT22;979;51.076;13.748;2023-09-19T14:48:20;30.60;45.10
1958;DHT22;979;51.076;13.748;2023-09-19T14:51:02;29.90;46.60
1958;DHT22;979;51.076;13.748;2023-09-19T14:54:36;29.60;46.50
1958;DHT22;979;51.076;13.748;2023-09-19T15:02:20;28.70;46.70
1958;DHT22;979;51.076;13.748;2023-09-19T15:05:11;28.20;46.20
1958;DHT22;979;51.076;13.748;2023-09-19T15:08:19;27.80;47.10
1958;DHT22;979;51.076;13.748;2023-09-19T15:12:17;27.60;47.80
1958;DHT22;979;51.076;13.748;2023-09-19T15:15:33;27.20;46.50
1958;DHT22;979;51.076;13.748;2023-09-19T15:18:16;27.00;46.70
1958;DHT22;979;51.076;13.748;2023-09-19T15:21:03;26.80;47.30
1958;DHT22;979;51.076;13.748;2023-09-19T15:23:55;26.60;47.00
1958;DHT22;979;51.076;13.748;2023-09-19T15:58:23;25.60;48.40
1958;DHT22;979;51.076;13.748;2023-09-19T16:01:07;25.90;48.80
1958;DHT22;979;51.076;13.748;2023-09-19T16:03:47;26.50;49.00
1958;DHT22;979;51.076;13.748;2023-09-19T16:07:14;27.40;48.80
1958;DHT22;979;51.076;13.748;2023-09-19T16:14:38;28.90;47.40
1958;DHT22;979;51.076;13.748;2023-09-19T16:17:45;29.50;46.70
1958;DHT22;979;51.076;13.748;2023-09-19T16:21:46;29.60;46.30
1958;DHT22;979;51.076;13.748;2023-09-19T16:24:45;29.40;45.90
1958;DHT22;979;51.076;13.748;2023-09-19T16:27:17;29.30;46.60
1958;DHT22;979;51.076;13.748;2023-09-19T16:29:53;29.50;46.20
1958;DHT22;979;51.076;13.748;2023-09-19T16:32:25;29.40;46.00
1958;DHT22;979;51.076;13.748;2023-09-19T16:34:54;29.40;45.50
1958;DHT22;979;51.076;13.748;2023-09-19T16:37:26;29.30;45.40
1958;DHT22;979;51.076;13.748;2023-09-19T16:39:55;29.20;45.10
1958;DHT22;979;51.076;13.748;2023-09-19T16:42:37;29.00;45.30
1958;DHT22;979;51.076;13.748;2023-09-19T16:46:02;28.70;45.00
1958;DHT22;979;51.076;13.748;2023-09-19T16:49:01;28.20;44.60
1958;DHT22;979;51.076;13.748;2023-09-19T16:51:34;27.50;44.90
1958;DHT22;979;51.076;13.748;2023-09-19T16:54:05;27.00;45.50
1958;DHT22;979;51.076;13.748;2023-09-19T16:56:34;26.70;45.30
1958;DHT22;979;51.076;13.748;2023-09-19T16:59:07;26.20;45.80
1958;DHT22;979;51.076;13.748;2023-09-19T17:01:43;25.90;46.00
1958;DHT22;979;51.076;13.748;2023-09-19T17:04:27;25.60;46.30
1958;DHT22;979;51.076;13.748;2023-09-19T17:06:58;25.30;46.50
1958;DHT22;979;51.076;13.748;2023-09-19T17:09:27;25.10;46.50
1958;DHT22;979;51.076;13.748;2023-09-19T17:11:57;24.80;46.50
1958;DHT22;979;51.076;13.748;2023-09-19T17:14:27;24.60;47.00
1958;DHT22;979;51.076;13.748;2023-09-19T17:16:59;24.40;46.90
1958;DHT22;979;51.076;13.748;2023-09-19T17:19:30;24.30;47.00
1958;DHT22;979;51.076;13.748;2023-09-19T17:21:59;24.10;47.10
1958;DHT22;979;51.076;13.748;2023-09-19T17:24:31;23.90;47.30
1958;DHT22;979;51.076;13.748;2023-09-19T17:26:59;23.80;47.20
1958;DHT22;979;51.076;13.748;2023-09-19T17:29:45;23.60;47.40
1958;DHT22;979;51.076;13.748;2023-09-19T17:32:56;23.50;47.40
1958;DHT22;979;51.076;13.748;2023-09-19T17:36:11;23.40;47.60
1958;DHT22;979;51.076;13.748;2023-09-19T17:38:50;23.00;47.20
1958;DHT22;979;51.076;13.748;2023-09-19T17:41:33;23.00;47.20
1958;DHT22;979;51.076;13.748;2023-09-19T17:44:38;22.90;47.70
1958;DHT22;979;51.076;13.748;2023-09-19T17:48:01;22.90;47.50
1958;DHT22;979;51.076;13.748;2023-09-19T17:50:42;22.50;47.20
1958;DHT22;979;51.076;13.748;2023-09-19T17:53:33;22.60;47.90
1958;DHT22;979;51.076;13.748;2023-09-19T17:56:17;22.50;47.80
1958;DHT22;979;51.076;13.748;2023-09-19T17:58:54;22.40;48.20
1958;DHT22;979;51.076;13.748;2023-09-19T18:01:32;22.30;48.10
1958;DHT22;979;51.076;13.748;2023-09-19T18:04:34;22.20;48.10
1958;DHT22;979;51.076;13.748;2023-09-19T18:10:48;22.10;48.50
1958;DHT22;979;51.076;13.748;2023-09-19T18:13:39;22.00;48.90
1958;DHT22;979;51.076;13.748;2023-09-19T18:16:19;21.90;48.80
1958;DHT22;979;51.076;13.748;2023-09-19T18:18:53;21.80;48.80
1958;DHT22;979;51.076;13.748;2023-09-19T18:21:53;21.80;49.10
1958;DHT22;979;51.076;13.748;2023-09-19T18:24:38;21.70;49.00
1958;DHT22;979;51.076;13.748;2023-09-19T18:27:13;21.60;49.40
1958;DHT22;979;51.076;13.748;2023-09-19T18:30:00;21.60;50.00
1958;DHT22;979;51.076;13.748;2023-09-19T18:32:41;21.50;49.60
1958;DHT22;979;51.076;13.748;2023-09-19T18:35:33;21.40;49.90
1958;DHT22;979;51.076;13.748;2023-09-19T18:39:08;21.40;50.00
1958;DHT22;979;51.076;13.748;2023-09-19T18:42:04;21.40;50.10
1958;DHT22;979;51.076;13.748;2023-09-19T18:45:03;21.20;50.20
1958;DHT22;979;51.076;13.748;2023-09-19T18:48:22;21.20;50.30
1958;DHT22;979;51.076;13.748;2023-09-19T18:51:51;21.20;50.60
1958;DHT22;979;51.076;13.748;2023-09-19T19:40:27;20.30;53.40
1958;DHT22;979;51.076;13.748;2023-09-19T19:43:10;20.20;53.50
1958;DHT22;979;51.076;13.748;2023-09-19T19:46:38;20.10;54.00
1958;DHT22;979;51.076;13.748;2023-09-19T19:58:56;20.00;54.90
1958;DHT22;979;51.076;13.748;2023-09-19T20:05:36;19.80;55.40
1958;DHT22;979;51.076;13.748;2023-09-19T20:08:57;19.80;55.30
1958;DHT22;979;51.076;13.748;2023-09-19T20:12:40;19.90;55.90
1958;DHT22;979;51.076;13.748;2023-09-19T20:15:40;19.70;55.60
1958;DHT22;979;51.076;13.748;2023-09-19T20:18:53;19.90;56.00
1958;DHT22;979;51.076;13.748;2023-09-19T20:21:42;19.70;56.20
1958;DHT22;979;51.076;13.748;2023-09-19T20:24:48;19.60;56.40
1958;DHT22;979;51.076;13.748;2023-09-19T20:27:55;19.40;56.40
1958;DHT22;979;51.076;13.748;2023-09-19T20:31:08;19.60;56.70
1958;DHT22;979;51.076;13.748;2023-09-19T20:37:43;19.60;57.00
1958;DHT22;979;51.076;13.748;2023-09-19T20:55:32;19.00;58.50
1958;DHT22;979;51.076;13.748;2023-09-19T20:58:48;19.00;59.30
1958;DHT22;979;51.076;13.748;2023-09-19T21:01:47;19.00;59.30
1958;DHT22;979;51.076;13.748;2023-09-19T21:05:00;18.90;59.30
1958;DHT22;979;51.076;13.748;2023-09-19T21:07:37;18.70;59.80
1958;DHT22;979;51.076;13.748;2023-09-19T21:10:13;18.60;59.80
1958;DHT22;979;51.076;13.748;2023-09-19T21:13:12;18.60;60.10
1958;DHT22;979;51.076;13.748;2023-09-19T21:16:13;18.60;60.60
1958;DHT22;979;51.076;13.748;2023-09-19T21:19:30;18.70;60.40
1958;DHT22;979;51.076;13.748;2023-09-19T21:22:20;18.50;60.70
1958;DHT22;979;51.076;13.748;2023-09-19T21:25:03;18.40;60.80
1958;DHT22;979;51.076;13.748;2023-09-19T21:29:06;18.40;61.20
1958;DHT22;979;51.076;13.748;2023-09-19T21:36:07;18.40;61.30
1958;DHT22;979;51.076;13.748;2023-09-19T21:39:10;18.20;61.80
1958;DHT22;979;51.076;13.748;2023-09-19T21:42:14;18.10;61.30
1958;DHT22;979;51.076;13.748;2023-09-19T21:45:11;18.20;62.00
1958;DHT22;979;51.076;13.748;2023-09-19T21:48:12;18.00;62.30
1958;DHT22;979;51.076;13.748;2023-09-19T21:50:57;18.10;62.60
1958;DHT22;979;51.076;13.748;2023-09-19T21:54:09;18.10;62.90
1958;DHT22;979;51.076;13.748;2023-09-19T21:57:02;18.00;63.20
1958;DHT22;979;51.076;13.748;2023-09-19T22:00:26;18.20;63.20
1958;DHT22;979;51.076;13.748;2023-09-19T22:03:19;18.00;63.20
1958;DHT22;979;51.076;13.748;2023-09-19T22:06:30;17.70;63.00
1958;DHT22;979;51.076;13.748;2023-09-19T22:09:31;17.90;63.40
1958;DHT22;979;51.076;13.748;2023-09-19T22:12:28;17.90;63.80
1958;DHT22;979;51.076;13.748;2023-09-19T22:15:32;17.70;63.80
1958;DHT22;979;51.076;13.748;2023-09-19T22:18:48;17.80;64.50
1958;DHT22;979;51.076;13.748;2023-09-19T22:21:39;17.80;64.20
1958;DHT22;979;51.076;13.748;2023-09-19T22:25:05;17.80;64.20